createdAt,value
2019-06-01T00:04:13.158Z,4.37
2019-06-01T00:09:04.063Z,4.60
2019-06-01T00:13:54.998Z,4.77
2019-06-01T00:18:46.057Z,4.27
2019-06-01T00:23:36.814Z,3.90
2019-06-01T00:28:27.785Z,4.47
2019-06-01T00:33:18.798Z,3.93
2019-06-01T00:38:09.807Z,4.37
2019-06-01T00:43:00.725Z,4.17
2019-06-01T00:47:52.989Z,4.30
2019-06-01T00:52:43.484Z,4.03
2019-06-01T00:57:34.418Z,4.40
2019-06-01T01:02:25.327Z,3.60
2019-06-01T01:07:16.254Z,3.47
2019-06-01T01:12:07.159Z,4.80
2019-06-01T01:16:58.092Z,4.20
2019-06-01T01:21:49.930Z,3.63
2019-06-01T01:26:40.027Z,3.80
2019-06-01T01:31:30.928Z,3.87
2019-06-01T01:36:21.960Z,4.13
2019-06-01T01:41:12.886Z,4.03
2019-06-01T01:46:03.905Z,3.83
2019-06-01T01:50:54.824Z,4.23
2019-06-01T01:55:45.736Z,3.97
2019-06-01T02:00:36.639Z,3.97
2019-06-01T02:05:27.550Z,3.60
2019-06-01T02:10:18.452Z,3.53
2019-06-01T02:15:09.412Z,3.93
2019-06-01T02:20:00.328Z,3.83
2019-06-01T02:24:51.280Z,4.45
2019-06-01T02:29:42.935Z,4.30
2019-06-01T02:34:34.632Z,4.90
2019-06-01T02:39:25.656Z,4.90
2019-06-01T02:44:16.571Z,4.03
2019-06-01T02:49:07.608Z,4.30
2019-06-01T02:53:59.612Z,4.30
2019-06-01T02:58:50.998Z,4.87
2019-06-01T03:03:42.692Z,4.40
2019-06-01T03:08:33.631Z,6.43
2019-06-01T03:13:24.525Z,5.03
2019-06-01T03:18:15.419Z,4.67
2019-06-01T03:23:06.318Z,4.47
2019-06-01T03:27:57.282Z,4.37
2019-06-01T03:32:48.227Z,4.20
2019-06-01T03:37:39.115Z,5.23
2019-06-01T03:42:30.008Z,5.43
2019-06-01T03:47:20.967Z,5.30
2019-06-01T03:52:13.023Z,4.97
2019-06-01T03:57:03.758Z,4.90
2019-06-01T04:01:54.665Z,6.23
2019-06-01T04:06:45.706Z,5.10
2019-06-01T04:11:37.360Z,6.00
2019-06-01T04:16:28.333Z,6.00
2019-06-01T04:21:19.244Z,6.50
2019-06-01T04:26:10.372Z,6.15
2019-06-01T04:31:02.267Z,6.47
2019-06-01T04:35:52.191Z,6.70
2019-06-01T04:40:43.098Z,6.60
2019-06-01T04:45:33.991Z,6.60
2019-06-01T04:50:24.891Z,7.13
2019-06-01T04:55:16.546Z,6.55
2019-06-01T05:00:15.329Z,7.67
2019-06-01T05:04:58.509Z,7.50
2019-06-01T05:09:49.537Z,7.83
2019-06-01T05:14:40.556Z,8.10
2019-06-01T05:19:31.574Z,7.20
2019-06-01T05:24:22.582Z,7.80
2019-06-01T05:29:13.574Z,6.40
2019-06-01T05:34:04.411Z,7.80
2019-06-01T05:38:55.345Z,7.70
2019-06-01T05:43:46.263Z,6.70
2019-06-01T05:48:37.184Z,7.90
2019-06-01T05:53:28.101Z,7.80
2019-06-01T05:58:19.705Z,7.73
2019-06-01T06:03:12.842Z,7.17
2019-06-01T06:08:01.618Z,7.20
2019-06-01T06:12:52.523Z,8.47
2019-06-01T06:17:44.175Z,7.90
2019-06-01T06:22:35.097Z,7.95
2019-06-01T06:27:26.003Z,8.20
2019-06-01T06:32:17.291Z,6.90
2019-06-01T06:37:07.995Z,7.87
2019-06-01T06:41:58.937Z,6.27
2019-06-01T06:46:49.949Z,8.60
2019-06-01T06:51:40.847Z,8.10
2019-06-01T06:56:31.789Z,8.30
2019-06-01T07:01:22.959Z,7.93
2019-06-01T07:06:14.090Z,7.90
2019-06-01T07:11:05.008Z,6.93
2019-06-01T07:15:55.962Z,7.03
2019-06-01T07:20:46.901Z,8.90
2019-06-01T07:25:37.820Z,7.62
2019-06-01T07:30:28.853Z,7.77
2019-06-01T07:35:20.509Z,7.80
2019-06-01T07:40:13.625Z,7.03
2019-06-01T07:45:04.479Z,6.60
2019-06-01T07:49:56.218Z,8.03
2019-06-01T07:55:02.927Z,7.63
2019-06-01T07:59:54.030Z,7.20
2019-06-01T08:04:53.791Z,7.77
2019-06-01T08:09:36.772Z,7.13
2019-06-01T08:14:28.632Z,7.00
2019-06-01T08:19:18.605Z,6.50
2019-06-01T08:24:09.642Z,8.70
2019-06-01T08:29:01.394Z,7.47
2019-06-01T08:33:53.108Z,5.90
2019-06-01T08:38:44.828Z,6.97
2019-06-01T08:43:35.764Z,5.40
2019-06-01T08:48:27.716Z,7.20
2019-06-01T08:53:17.802Z,6.13
2019-06-01T08:58:08.815Z,4.87
2019-06-01T09:03:14.719Z,5.07
2019-06-01T09:08:06.489Z,4.37
2019-06-01T09:12:57.446Z,5.20
2019-06-01T09:17:48.346Z,8.73
2019-06-01T09:22:39.288Z,6.70
2019-06-01T09:27:30.308Z,6.40
2019-06-01T09:32:21.238Z,5.03
2019-06-01T09:37:12.251Z,5.67
2019-06-01T09:42:03.269Z,5.57
2019-06-01T09:46:54.288Z,5.00
2019-06-01T09:51:45.203Z,5.13
2019-06-01T09:56:37.810Z,5.13
2019-06-01T10:01:28.157Z,4.70
2019-06-01T10:06:18.779Z,4.03
2019-06-01T10:11:09.679Z,4.10
2019-06-01T10:16:00.595Z,4.80
2019-06-01T10:20:52.359Z,6.87
2019-06-01T10:25:43.289Z,4.93
2019-06-01T10:30:34.184Z,3.63
2019-06-01T10:35:25.095Z,3.63
2019-06-01T10:40:16.047Z,4.47
2019-06-01T10:45:07.703Z,8.03
2019-06-01T10:49:59.342Z,3.40
2019-06-01T10:54:51.079Z,4.23
2019-06-01T10:59:42.630Z,4.37
2019-06-01T11:04:32.922Z,3.93
2019-06-01T11:09:24.020Z,3.30
2019-06-01T11:14:15.688Z,3.40
2019-06-01T11:19:06.664Z,3.30
2019-06-01T11:23:57.607Z,3.33
2019-06-01T11:28:49.258Z,3.77
2019-06-01T11:33:40.218Z,3.67
2019-06-01T11:38:31.112Z,4.50
2019-06-01T11:43:22.022Z,3.10
2019-06-01T11:48:12.991Z,3.00
2019-06-01T11:53:04.008Z,3.53
2019-06-01T11:57:55.040Z,3.03
2019-06-01T12:02:46.862Z,2.57
2019-06-01T12:07:37.783Z,2.62
2019-06-01T12:12:29.423Z,2.90
2019-06-01T12:17:20.447Z,5.57
2019-06-01T12:22:12.290Z,2.73
2019-06-01T12:27:03.199Z,13.73
2019-06-01T12:31:54.112Z,2.70
2019-06-01T12:36:46.282Z,2.60
2019-06-01T12:41:35.957Z,2.47
2019-06-01T12:46:27.616Z,2.97
2019-06-01T12:51:19.339Z,2.45
2019-06-01T12:56:10.256Z,2.23
2019-06-01T13:01:02.859Z,2.80
2019-06-01T13:05:52.900Z,2.45
2019-06-01T13:10:45.056Z,1.90
2019-06-01T13:15:35.563Z,2.20
2019-06-01T13:20:26.576Z,2.70
2019-06-01T13:25:17.515Z,2.43
2019-06-01T13:30:08.426Z,1.93
2019-06-01T13:34:59.336Z,2.07
2019-06-01T13:39:56.001Z,1.70
2019-06-01T13:44:41.180Z,5.37
2019-06-01T13:49:32.099Z,2.80
2019-06-01T13:54:23.128Z,2.50
2019-06-01T13:59:14.034Z,2.03
2019-06-01T14:04:04.939Z,1.97
2019-06-01T14:08:55.830Z,1.70
2019-06-01T14:13:47.460Z,4.30
2019-06-01T14:18:37.719Z,2.17
2019-06-01T14:23:28.740Z,2.57
2019-06-01T14:28:19.760Z,2.03
2019-06-01T14:33:10.667Z,1.70
2019-06-01T14:38:01.660Z,1.77
2019-06-01T14:42:53.635Z,3.73
2019-06-01T14:47:43.531Z,2.87
2019-06-01T14:52:35.262Z,2.40
2019-06-01T14:57:25.362Z,1.67
2019-06-01T15:02:16.265Z,5.13
2019-06-01T15:07:07.190Z,2.10
2019-06-01T15:11:58.770Z,2.20
2019-06-01T15:16:49.576Z,1.80
2019-06-01T15:21:40.059Z,2.00
2019-06-01T15:26:30.993Z,2.53
2019-06-01T15:31:22.006Z,1.40
2019-06-01T15:36:12.919Z,1.60
2019-06-01T15:41:03.955Z,3.10
2019-06-01T15:45:55.370Z,2.90
2019-06-01T15:50:45.881Z,1.70
2019-06-01T15:55:36.794Z,3.50
2019-06-01T16:00:27.725Z,2.07
2019-06-01T16:05:18.627Z,2.40
2019-06-01T16:10:09.560Z,2.10
2019-06-01T16:15:02.021Z,1.57
2019-06-01T16:19:51.384Z,1.83
2019-06-01T16:24:42.291Z,2.00
2019-06-01T16:29:33.191Z,5.10
2019-06-01T16:34:24.143Z,1.53
2019-06-01T16:39:15.044Z,1.77
2019-06-01T16:44:05.979Z,1.83
2019-06-01T16:48:57.467Z,1.90
2019-06-01T16:53:48.027Z,1.60
2019-06-01T16:58:38.952Z,2.00
2019-06-01T17:03:29.859Z,1.77
2019-06-01T17:08:20.763Z,1.63
2019-06-01T17:13:11.658Z,1.80
2019-06-01T17:18:06.176Z,1.63
2019-06-01T17:22:53.552Z,1.87
2019-06-01T17:27:44.488Z,2.10
2019-06-01T17:32:36.148Z,2.00
2019-06-01T17:37:27.055Z,2.30
2019-06-01T17:42:17.954Z,2.30
2019-06-01T17:47:09.602Z,2.20
2019-06-01T17:52:01.878Z,2.00
2019-06-01T17:56:52.288Z,6.33
2019-06-01T18:01:43.249Z,2.07
2019-06-01T18:06:34.147Z,2.20
2019-06-01T18:11:25.078Z,1.80
2019-06-01T18:16:16.028Z,2.23
2019-06-01T18:21:08.401Z,2.10
2019-06-01T18:25:58.612Z,3.53
2019-06-01T18:30:49.520Z,2.47
2019-06-01T18:35:40.423Z,2.43
2019-06-01T18:40:32.050Z,2.30
2019-06-01T18:45:23.756Z,2.22
2019-06-01T18:50:17.328Z,2.03
2019-06-01T18:55:06.425Z,2.57
2019-06-01T18:59:57.286Z,2.17
2019-06-01T19:04:48.265Z,2.70
2019-06-01T19:09:39.185Z,2.50
2019-06-01T19:14:30.191Z,9.83
2019-06-01T19:19:21.116Z,2.43
2019-06-01T19:24:12.639Z,7.33
2019-06-01T19:29:03.762Z,2.83
2019-06-01T19:33:54.659Z,2.43
2019-06-01T19:38:45.598Z,12.53
2019-06-01T19:43:36.517Z,2.43
2019-06-01T19:48:27.455Z,3.33
2019-06-01T19:53:18.913Z,2.90
2019-06-01T19:58:09.971Z,2.80
2019-06-01T20:03:01.072Z,3.13
2019-06-01T20:07:51.983Z,3.60
2019-06-01T20:12:42.893Z,5.73
2019-06-01T20:17:34.586Z,3.90
2019-06-01T20:22:26.378Z,5.00
2019-06-01T20:27:17.519Z,6.22
2019-06-01T20:32:08.214Z,9.43
2019-06-01T20:36:59.907Z,8.97
2019-06-01T20:41:50.810Z,7.47
2019-06-01T20:46:41.719Z,7.60
2019-06-01T20:51:32.622Z,7.90
2019-06-01T20:56:23.614Z,8.32
2019-06-01T21:01:15.591Z,8.20
2019-06-01T21:06:06.257Z,9.23
2019-06-01T21:10:57.162Z,8.57
2019-06-01T21:15:48.090Z,9.30
2019-06-01T21:20:39.083Z,10.13
2019-06-01T21:25:30.012Z,9.10
2019-06-01T21:30:22.640Z,8.57
2019-06-01T21:35:11.842Z,9.00
2019-06-01T21:40:05.722Z,9.50
2019-06-01T21:44:56.663Z,10.10
2019-06-01T21:49:47.572Z,9.13
2019-06-01T21:54:38.497Z,9.03
2019-06-01T21:59:29.410Z,9.20
2019-06-01T22:04:20.803Z,8.10
2019-06-01T22:09:12.066Z,8.73
2019-06-01T22:14:02.975Z,9.60
2019-06-01T22:18:53.912Z,9.47
2019-06-01T22:23:44.928Z,9.77
2019-06-01T22:28:35.839Z,9.88
2019-06-01T22:33:26.739Z,10.10
2019-06-01T22:38:17.647Z,11.07
2019-06-01T22:43:08.608Z,11.20
2019-06-01T22:47:59.519Z,11.60
2019-06-01T22:52:51.272Z,11.40
2019-06-01T22:57:43.239Z,9.97
2019-06-01T23:02:33.202Z,10.40
2019-06-01T23:07:25.104Z,9.97
2019-06-01T23:12:15.240Z,9.33
2019-06-01T23:17:06.156Z,9.60
2019-06-01T23:21:57.078Z,9.33
2019-06-01T23:26:47.990Z,9.27
2019-06-01T23:31:38.918Z,8.48
2019-06-01T23:36:30.687Z,7.47
2019-06-01T23:41:20.756Z,9.10
2019-06-01T23:46:11.654Z,8.43
2019-06-01T23:51:02.584Z,7.03
2019-06-01T23:55:53.508Z,7.20
